Terminal Aerodrome Forecast
Issued by NWS Wilmington, OH

Current Version | Previous Version | Graphics & Text | Print | Product List | Glossary On
Versions: 1 2 3 4 5 6 7 8 9 10 11 12 13 14 15 16 17 18 19 20 21 22 23 24 25 26 27 28
690
FTUS41 KILN 182331
TAFCVG
TAF
KCVG 182331Z 1900/2006 15009KT P6SM OVC250
     FM190600 17010KT P6SM BKN100 WS020/20045KT
     FM190900 19008KT P6SM VCSH OVC022 WS020/22045KT
     FM191100 19011KT 4SM -SHRA BR OVC012
     FM191700 20012G20KT P6SM SCT012 BKN250
     FM192300 18010KT P6SM BKN250=

USA.gov is the U.S. government's official web portal to all federal, state and local government web resources and services.